sensor_id;sensor_type;location;lat;lon;timestamp;temperature;humidity
64869;DHT22;51349;52.424;10.840;2023-11-18T00:00:20;1.40;99.90
64869;DHT22;51349;52.424;10.840;2023-11-18T00:05:21;1.20;99.90
64869;DHT22;51349;52.424;10.840;2023-11-18T00:10:22;1.00;99.90
64869;DHT22;51349;52.424;10.840;2023-11-18T00:15:24;1.10;99.90
64869;DHT22;51349;52.424;10.840;2023-11-18T00:20:24;0.90;99.90
64869;DHT22;51349;52.424;10.840;2023-11-18T00:25:26;0.70;99.90
64869;DHT22;51349;52.424;10.840;2023-11-18T00:30:28;0.70;99.90
64869;DHT22;51349;52.424;10.840;2023-11-18T00:35:29;0.60;99.90
64869;DHT22;51349;52.424;10.840;2023-11-18T00:40:32;0.50;99.90
64869;DHT22;51349;52.424;10.840;2023-11-18T00:45:33;0.60;99.90
64869;DHT22;51349;52.424;10.840;2023-11-18T00:50:33;0.60;99.90
64869;DHT22;51349;52.424;10.840;2023-11-18T00:55:34;0.40;99.90
64869;DHT22;51349;52.424;10.840;2023-11-18T01:00:35;0.40;99.90
64869;DHT22;51349;52.424;10.840;2023-11-18T01:05:36;0.40;99.90
64869;DHT22;51349;52.424;10.840;2023-11-18T01:10:37;0.30;99.90
64869;DHT22;51349;52.424;10.840;2023-11-18T01:15:38;0.30;99.90
64869;DHT22;51349;52.424;10.840;2023-11-18T01:20:39;0.20;99.90
64869;DHT22;51349;52.424;10.840;2023-11-18T01:25:40;0.30;99.90
64869;DHT22;51349;52.424;10.840;2023-11-18T01:30:40;0.30;99.90
64869;DHT22;51349;52.424;10.840;2023-11-18T01:35:42;0.40;99.90
64869;DHT22;51349;52.424;10.840;2023-11-18T01:40:44;0.60;99.90
64869;DHT22;51349;52.424;10.840;2023-11-18T01:45:44;0.50;99.90
64869;DHT22;51349;52.424;10.840;2023-11-18T01:50:46;0.60;99.90
64869;DHT22;51349;52.424;10.840;2023-11-18T01:55:48;0.50;99.90
64869;DHT22;51349;52.424;10.840;2023-11-18T02:00:50;0.50;99.90
64869;DHT22;51349;52.424;10.840;2023-11-18T02:05:52;0.50;99.90
64869;DHT22;51349;52.424;10.840;2023-11-18T02:11:01;0.30;99.90
64869;DHT22;51349;52.424;10.840;2023-11-18T02:16:12;0.30;99.90
64869;DHT22;51349;52.424;10.840;2023-11-18T02:21:13;0.30;99.90
64869;DHT22;51349;52.424;10.840;2023-11-18T02:26:22;0.40;99.90
64869;DHT22;51349;52.424;10.840;2023-11-18T02:31:29;0.70;99.90
64869;DHT22;51349;52.424;10.840;2023-11-18T02:36:36;1.00;99.90
64869;DHT22;51349;52.424;10.840;2023-11-18T02:41:40;1.00;99.90
64869;DHT22;51349;52.424;10.840;2023-11-18T02:46:42;1.30;99.90
64869;DHT22;51349;52.424;10.840;2023-11-18T02:51:44;1.30;99.90
64869;DHT22;51349;52.424;10.840;2023-11-18T02:56:48;1.40;99.90
64869;DHT22;51349;52.424;10.840;2023-11-18T03:01:53;1.40;99.90
64869;DHT22;51349;52.424;10.840;2023-11-18T03:06:55;1.50;99.90
64869;DHT22;51349;52.424;10.840;2023-11-18T03:11:56;1.50;99.90
64869;DHT22;51349;52.424;10.840;2023-11-18T03:16:57;1.60;99.90
64869;DHT22;51349;52.424;10.840;2023-11-18T03:21:58;1.70;99.90
64869;DHT22;51349;52.424;10.840;2023-11-18T03:26:59;1.70;99.90
64869;DHT22;51349;52.424;10.840;2023-11-18T03:32:00;1.70;99.90
64869;DHT22;51349;52.424;10.840;2023-11-18T03:37:00;1.70;99.90
64869;DHT22;51349;52.424;10.840;2023-11-18T03:42:01;1.70;99.90
64869;DHT22;51349;52.424;10.840;2023-11-18T03:47:01;1.70;99.90
64869;DHT22;51349;52.424;10.840;2023-11-18T03:52:03;1.70;99.90
64869;DHT22;51349;52.424;10.840;2023-11-18T03:57:04;1.70;99.90
64869;DHT22;51349;52.424;10.840;2023-11-18T04:02:05;1.70;99.90
64869;DHT22;51349;52.424;10.840;2023-11-18T04:07:06;1.70;99.90
64869;DHT22;51349;52.424;10.840;2023-11-18T04:12:07;1.70;99.90
64869;DHT22;51349;52.424;10.840;2023-11-18T04:17:08;1.80;99.90
64869;DHT22;51349;52.424;10.840;2023-11-18T04:22:09;1.80;99.90
64869;DHT22;51349;52.424;10.840;2023-11-18T04:27:10;1.80;99.90
64869;DHT22;51349;52.424;10.840;2023-11-18T04:32:11;1.80;99.90
64869;DHT22;51349;52.424;10.840;2023-11-18T04:37:14;1.70;99.90
64869;DHT22;51349;52.424;10.840;2023-11-18T04:42:15;1.60;99.90
64869;DHT22;51349;52.424;10.840;2023-11-18T04:47:16;1.50;99.90
64869;DHT22;51349;52.424;10.840;2023-11-18T04:52:18;1.40;99.90
64869;DHT22;51349;52.424;10.840;2023-11-18T04:57:19;1.20;99.90
64869;DHT22;51349;52.424;10.840;2023-11-18T05:02:20;1.20;99.90
64869;DHT22;51349;52.424;10.840;2023-11-18T05:07:20;1.20;99.90
64869;DHT22;51349;52.424;10.840;2023-11-18T05:12:22;1.10;99.90
64869;DHT22;51349;52.424;10.840;2023-11-18T05:17:23;1.00;99.90
64869;DHT22;51349;52.424;10.840;2023-11-18T05:22:24;1.10;99.90
64869;DHT22;51349;52.424;10.840;2023-11-18T05:27:24;1.00;99.90
64869;DHT22;51349;52.424;10.840;2023-11-18T05:32:28;0.90;99.90
64869;DHT22;51349;52.424;10.840;2023-11-18T05:37:28;0.70;99.90
64869;DHT22;51349;52.424;10.840;2023-11-18T05:42:30;0.50;99.90
64869;DHT22;51349;52.424;10.840;2023-11-18T05:47:30;0.40;99.90
64869;DHT22;51349;52.424;10.840;2023-11-18T05:52:31;0.20;99.90
64869;DHT22;51349;52.424;10.840;2023-11-18T05:57:33;0.20;99.90
64869;DHT22;51349;52.424;10.840;2023-11-18T06:02:33;0.00;99.90
64869;DHT22;51349;52.424;10.840;2023-11-18T06:07:36;0.00;99.90
64869;DHT22;51349;52.424;10.840;2023-11-18T06:12:37;0.00;99.90
64869;DHT22;51349;52.424;10.840;2023-11-18T06:17:40;-0.10;99.90
64869;DHT22;51349;52.424;10.840;2023-11-18T06:22:45;-0.20;99.90
64869;DHT22;51349;52.424;10.840;2023-11-18T06:27:46;-0.10;99.90
64869;DHT22;51349;52.424;10.840;2023-11-18T06:32:48;-0.20;99.90
64869;DHT22;51349;52.424;10.840;2023-11-18T06:37:48;-0.20;99.90
64869;DHT22;51349;52.424;10.840;2023-11-18T06:42:49;-0.20;99.90
64869;DHT22;51349;52.424;10.840;2023-11-18T06:47:50;-0.20;99.90
64869;DHT22;51349;52.424;10.840;2023-11-18T06:52:51;-0.20;99.90
64869;DHT22;51349;52.424;10.840;2023-11-18T06:57:51;-0.20;99.90
64869;DHT22;51349;52.424;10.840;2023-11-18T07:02:52;-0.20;99.90
64869;DHT22;51349;52.424;10.840;2023-11-18T07:07:57;-0.10;99.90
64869;DHT22;51349;52.424;10.840;2023-11-18T07:13:01;-0.20;99.90
64869;DHT22;51349;52.424;10.840;2023-11-18T07:18:02;-0.10;99.90
64869;DHT22;51349;52.424;10.840;2023-11-18T07:23:06;-0.10;99.90
64869;DHT22;51349;52.424;10.840;2023-11-18T07:28:11;-0.10;99.90
64869;DHT22;51349;52.424;10.840;2023-11-18T07:33:16;0.10;99.90
64869;DHT22;51349;52.424;10.840;2023-11-18T07:38:19;0.30;99.90
64869;DHT22;51349;52.424;10.840;2023-11-18T07:43:21;0.30;99.90
64869;DHT22;51349;52.424;10.840;2023-11-18T07:48:25;0.40;99.90
64869;DHT22;51349;52.424;10.840;2023-11-18T07:53:29;0.50;99.90
64869;DHT22;51349;52.424;10.840;2023-11-18T07:58:37;0.70;99.90
64869;DHT22;51349;52.424;10.840;2023-11-18T08:03:45;0.90;99.90
64869;DHT22;51349;52.424;10.840;2023-11-18T08:08:48;1.00;99.90
64869;DHT22;51349;52.424;10.840;2023-11-18T08:13:49;1.20;99.90
64869;DHT22;51349;52.424;10.840;2023-11-18T08:18:50;1.40;99.90
64869;DHT22;51349;52.424;10.840;2023-11-18T08:23:51;1.80;99.90
64869;DHT22;51349;52.424;10.840;2023-11-18T08:28:51;1.70;99.90
64869;DHT22;51349;52.424;10.840;2023-11-18T08:33:52;1.90;99.90
64869;DHT22;51349;52.424;10.840;2023-11-18T08:38:54;2.00;99.90
64869;DHT22;51349;52.424;10.840;2023-11-18T08:43:57;2.10;99.90
64869;DHT22;51349;52.424;10.840;2023-11-18T08:48:57;2.20;99.90
64869;DHT22;51349;52.424;10.840;2023-11-18T08:53:58;2.30;99.90
64869;DHT22;51349;52.424;10.840;2023-11-18T08:58:59;2.60;99.90
64869;DHT22;51349;52.424;10.840;2023-11-18T09:03:59;2.90;99.90
64869;DHT22;51349;52.424;10.840;2023-11-18T09:09:02;3.30;99.90
64869;DHT22;51349;52.424;10.840;2023-11-18T09:14:06;3.70;99.90
64869;DHT22;51349;52.424;10.840;2023-11-18T09:19:08;3.90;99.90
64869;DHT22;51349;52.424;10.840;2023-11-18T09:24:10;4.90;99.90
64869;DHT22;51349;52.424;10.840;2023-11-18T09:29:14;5.40;99.90
64869;DHT22;51349;52.424;10.840;2023-11-18T09:34:18;5.80;99.90
64869;DHT22;51349;52.424;10.840;2023-11-18T09:39:27;6.40;99.90
64869;DHT22;51349;52.424;10.840;2023-11-18T09:44:37;6.00;99.90
64869;DHT22;51349;52.424;10.840;2023-11-18T09:49:44;5.90;99.90
64869;DHT22;51349;52.424;10.840;2023-11-18T09:55:03;6.10;99.90
64869;DHT22;51349;52.424;10.840;2023-11-18T10:00:10;5.90;99.90
64869;DHT22;51349;52.424;10.840;2023-11-18T10:05:21;6.50;99.90
64869;DHT22;51349;52.424;10.840;2023-11-18T10:10:22;8.10;99.90
64869;DHT22;51349;52.424;10.840;2023-11-18T10:15:25;8.50;99.90
64869;DHT22;51349;52.424;10.840;2023-11-18T10:25:55;9.70;99.90
64869;DHT22;51349;52.424;10.840;2023-11-18T10:31:05;8.40;99.90
64869;DHT22;51349;52.424;10.840;2023-11-18T10:36:06;7.20;99.90
64869;DHT22;51349;52.424;10.840;2023-11-18T10:41:20;7.00;99.90
64869;DHT22;51349;52.424;10.840;2023-11-18T10:46:21;7.40;99.90
64869;DHT22;51349;52.424;10.840;2023-11-18T10:51:23;7.90;99.90
64869;DHT22;51349;52.424;10.840;2023-11-18T10:56:27;8.40;99.90
64869;DHT22;51349;52.424;10.840;2023-11-18T11:01:33;8.10;99.90
64869;DHT22;51349;52.424;10.840;2023-11-18T11:06:34;7.90;99.90
64869;DHT22;51349;52.424;10.840;2023-11-18T11:11:40;8.40;99.90
64869;DHT22;51349;52.424;10.840;2023-11-18T11:16:58;7.70;99.90
64869;DHT22;51349;52.424;10.840;2023-11-18T11:22:05;8.50;99.90
64869;DHT22;51349;52.424;10.840;2023-11-18T11:27:38;10.50;99.90
64869;DHT22;51349;52.424;10.840;2023-11-18T11:32:51;10.50;99.90
64869;DHT22;51349;52.424;10.840;2023-11-18T11:37:52;10.70;99.90
64869;DHT22;51349;52.424;10.840;2023-11-18T11:42:56;10.90;99.90
64869;DHT22;51349;52.424;10.840;2023-11-18T11:47:59;11.10;99.90
64869;DHT22;51349;52.424;10.840;2023-11-18T11:53:34;10.10;99.90
64869;DHT22;51349;52.424;10.840;2023-11-18T11:58:36;9.80;99.90
64869;DHT22;51349;52.424;10.840;2023-11-18T12:03:40;9.00;99.90
64869;DHT22;51349;52.424;10.840;2023-11-18T12:08:43;8.40;99.90
64869;DHT22;51349;52.424;10.840;2023-11-18T12:14:05;8.80;99.90
64869;DHT22;51349;52.424;10.840;2023-11-18T12:35:23;7.90;99.90
64869;DHT22;51349;52.424;10.840;2023-11-18T12:46:12;7.30;99.90
64869;DHT22;51349;52.424;10.840;2023-11-18T12:51:15;7.10;99.90
64869;DHT22;51349;52.424;10.840;2023-11-18T12:56:20;7.10;99.90
64869;DHT22;51349;52.424;10.840;2023-11-18T13:01:22;7.20;99.90
64869;DHT22;51349;52.424;10.840;2023-11-18T13:06:22;7.00;99.90
64869;DHT22;51349;52.424;10.840;2023-11-18T13:11:28;6.90;99.90
64869;DHT22;51349;52.424;10.840;2023-11-18T13:16:29;7.00;99.90
64869;DHT22;51349;52.424;10.840;2023-11-18T13:21:30;7.00;99.90
64869;DHT22;51349;52.424;10.840;2023-11-18T13:26:31;7.00;99.90
64869;DHT22;51349;52.424;10.840;2023-11-18T13:31:33;6.80;99.90
64869;DHT22;51349;52.424;10.840;2023-11-18T13:36:35;6.80;99.90
64869;DHT22;51349;52.424;10.840;2023-11-18T13:41:37;6.90;99.90
64869;DHT22;51349;52.424;10.840;2023-11-18T13:46:39;6.60;99.90
64869;DHT22;51349;52.424;10.840;2023-11-18T13:51:43;6.70;99.90
64869;DHT22;51349;52.424;10.840;2023-11-18T13:56:44;6.70;99.90
64869;DHT22;51349;52.424;10.840;2023-11-18T14:01:46;6.60;99.90
64869;DHT22;51349;52.424;10.840;2023-11-18T14:06:53;6.50;99.90
64869;DHT22;51349;52.424;10.840;2023-11-18T14:11:57;6.50;99.90
64869;DHT22;51349;52.424;10.840;2023-11-18T14:16:57;6.40;99.90
64869;DHT22;51349;52.424;10.840;2023-11-18T14:21:59;6.40;99.90
64869;DHT22;51349;52.424;10.840;2023-11-18T14:27:00;6.30;99.90
64869;DHT22;51349;52.424;10.840;2023-11-18T14:32:01;6.20;99.90
64869;DHT22;51349;52.424;10.840;2023-11-18T14:37:02;6.20;99.90
64869;DHT22;51349;52.424;10.840;2023-11-18T14:42:03;6.20;99.90
64869;DHT22;51349;52.424;10.840;2023-11-18T14:47:04;6.10;99.90
64869;DHT22;51349;52.424;10.840;2023-11-18T14:52:06;6.10;99.90
64869;DHT22;51349;52.424;10.840;2023-11-18T14:57:08;6.10;99.90
64869;DHT22;51349;52.424;10.840;2023-11-18T15:02:09;6.00;99.90
64869;DHT22;51349;52.424;10.840;2023-11-18T15:07:10;6.00;99.90
64869;DHT22;51349;52.424;10.840;2023-11-18T15:12:10;6.00;99.90
64869;DHT22;51349;52.424;10.840;2023-11-18T15:17:12;6.00;99.90
64869;DHT22;51349;52.424;10.840;2023-11-18T15:22:14;6.00;99.90
64869;DHT22;51349;52.424;10.840;2023-11-18T15:27:14;6.00;99.90
64869;DHT22;51349;52.424;10.840;2023-11-18T15:32:16;5.90;99.90
64869;DHT22;51349;52.424;10.840;2023-11-18T15:37:17;5.90;99.90
64869;DHT22;51349;52.424;10.840;2023-11-18T15:42:18;5.90;99.90
64869;DHT22;51349;52.424;10.840;2023-11-18T15:47:19;5.80;99.90
64869;DHT22;51349;52.424;10.840;2023-11-18T15:52:19;5.80;99.90
64869;DHT22;51349;52.424;10.840;2023-11-18T15:57:20;5.80;99.90
64869;DHT22;51349;52.424;10.840;2023-11-18T16:02:24;5.70;99.90
64869;DHT22;51349;52.424;10.840;2023-11-18T16:07:24;5.70;99.90
64869;DHT22;51349;52.424;10.840;2023-11-18T16:12:28;5.70;99.90
64869;DHT22;51349;52.424;10.840;2023-11-18T16:17:29;5.70;99.90
64869;DHT22;51349;52.424;10.840;2023-11-18T16:22:30;5.70;99.90
64869;DHT22;51349;52.424;10.840;2023-11-18T16:27:30;5.80;99.90
64869;DHT22;51349;52.424;10.840;2023-11-18T16:32:31;5.80;99.90
64869;DHT22;51349;52.424;10.840;2023-11-18T16:37:32;5.80;99.90
64869;DHT22;51349;52.424;10.840;2023-11-18T16:42:33;5.90;99.90
64869;DHT22;51349;52.424;10.840;2023-11-18T16:47:33;5.90;99.90
64869;DHT22;51349;52.424;10.840;2023-11-18T16:52:37;5.90;99.90
64869;DHT22;51349;52.424;10.840;2023-11-18T16:57:39;6.00;99.90
64869;DHT22;51349;52.424;10.840;2023-11-18T17:02:51;6.00;99.90
64869;DHT22;51349;52.424;10.840;2023-11-18T17:07:55;5.90;99.90
64869;DHT22;51349;52.424;10.840;2023-11-18T17:12:56;5.70;99.90
64869;DHT22;51349;52.424;10.840;2023-11-18T17:17:58;5.60;99.90
64869;DHT22;51349;52.424;10.840;2023-11-18T17:23:02;5.50;99.90
64869;DHT22;51349;52.424;10.840;2023-11-18T17:28:03;5.50;99.90
64869;DHT22;51349;52.424;10.840;2023-11-18T17:33:04;5.50;99.90
64869;DHT22;51349;52.424;10.840;2023-11-18T17:38:05;5.40;99.90
64869;DHT22;51349;52.424;10.840;2023-11-18T17:43:06;5.40;99.90
64869;DHT22;51349;52.424;10.840;2023-11-18T17:48:07;5.30;99.90
64869;DHT22;51349;52.424;10.840;2023-11-18T17:53:09;5.30;99.90
64869;DHT22;51349;52.424;10.840;2023-11-18T17:58:10;5.30;99.90
64869;DHT22;51349;52.424;10.840;2023-11-18T18:03:11;5.30;99.90
64869;DHT22;51349;52.424;10.840;2023-11-18T18:08:12;5.20;99.90
64869;DHT22;51349;52.424;10.840;2023-11-18T18:13:14;5.20;99.90
64869;DHT22;51349;52.424;10.840;2023-11-18T18:18:15;5.20;99.90
64869;DHT22;51349;52.424;10.840;2023-11-18T18:23:16;5.20;99.90
64869;DHT22;51349;52.424;10.840;2023-11-18T18:28:17;5.20;99.90
64869;DHT22;51349;52.424;10.840;2023-11-18T18:33:18;5.10;99.90
64869;DHT22;51349;52.424;10.840;2023-11-18T18:38:19;5.10;99.90
64869;DHT22;51349;52.424;10.840;2023-11-18T18:43:20;5.10;99.90
64869;DHT22;51349;52.424;10.840;2023-11-18T18:48:21;5.10;99.90
64869;DHT22;51349;52.424;10.840;2023-11-18T18:53:22;5.10;99.90
64869;DHT22;51349;52.424;10.840;2023-11-18T18:58:22;5.20;99.90
64869;DHT22;51349;52.424;10.840;2023-11-18T19:03:23;5.20;99.90
64869;DHT22;51349;52.424;10.840;2023-11-18T19:08:24;5.20;99.90
64869;DHT22;51349;52.424;10.840;2023-11-18T19:13:26;5.20;99.90
64869;DHT22;51349;52.424;10.840;2023-11-18T19:18:27;5.20;99.90
64869;DHT22;51349;52.424;10.840;2023-11-18T19:23:27;5.20;99.90
64869;DHT22;51349;52.424;10.840;2023-11-18T19:28:28;5.20;99.90
64869;DHT22;51349;52.424;10.840;2023-11-18T19:33:29;5.20;99.90
64869;DHT22;51349;52.424;10.840;2023-11-18T19:38:29;5.20;99.90
64869;DHT22;51349;52.424;10.840;2023-11-18T19:43:30;5.30;99.90
64869;DHT22;51349;52.424;10.840;2023-11-18T19:48:31;5.30;99.90
64869;DHT22;51349;52.424;10.840;2023-11-18T19:53:34;5.30;99.90
64869;DHT22;51349;52.424;10.840;2023-11-18T19:58:34;5.30;99.90
64869;DHT22;51349;52.424;10.840;2023-11-18T20:03:35;5.30;99.90
64869;DHT22;51349;52.424;10.840;2023-11-18T20:08:36;5.30;99.90
64869;DHT22;51349;52.424;10.840;2023-11-18T20:13:37;5.30;99.90
64869;DHT22;51349;52.424;10.840;2023-11-18T20:18:37;5.30;99.90
64869;DHT22;51349;52.424;10.840;2023-11-18T20:23:38;5.40;99.90
64869;DHT22;51349;52.424;10.840;2023-11-18T20:28:39;5.30;99.90
64869;DHT22;51349;52.424;10.840;2023-11-18T20:33:39;5.30;99.90
64869;DHT22;51349;52.424;10.840;2023-11-18T20:38:40;5.30;99.90
64869;DHT22;51349;52.424;10.840;2023-11-18T20:43:43;5.30;99.90
64869;DHT22;51349;52.424;10.840;2023-11-18T20:48:47;5.40;99.90
64869;DHT22;51349;52.424;10.840;2023-11-18T20:53:47;5.40;99.90
64869;DHT22;51349;52.424;10.840;2023-11-18T20:58:48;5.50;99.90
64869;DHT22;51349;52.424;10.840;2023-11-18T21:03:50;5.60;99.90
64869;DHT22;51349;52.424;10.840;2023-11-18T21:08:51;5.60;99.90
64869;DHT22;51349;52.424;10.840;2023-11-18T21:13:52;5.70;99.90
64869;DHT22;51349;52.424;10.840;2023-11-18T21:18:54;5.70;99.90
64869;DHT22;51349;52.424;10.840;2023-11-18T21:23:55;5.70;99.90
64869;DHT22;51349;52.424;10.840;2023-11-18T21:28:55;5.60;99.90
64869;DHT22;51349;52.424;10.840;2023-11-18T21:33:57;5.70;99.90
64869;DHT22;51349;52.424;10.840;2023-11-18T21:38:58;5.70;99.90
64869;DHT22;51349;52.424;10.840;2023-11-18T21:44:00;5.70;99.90
64869;DHT22;51349;52.424;10.840;2023-11-18T21:49:05;5.70;99.90
64869;DHT22;51349;52.424;10.840;2023-11-18T21:54:09;5.70;99.90
64869;DHT22;51349;52.424;10.840;2023-11-18T21:59:10;5.60;99.90
64869;DHT22;51349;52.424;10.840;2023-11-18T22:04:11;5.60;99.90
64869;DHT22;51349;52.424;10.840;2023-11-18T22:09:12;5.60;99.90
64869;DHT22;51349;52.424;10.840;2023-11-18T22:14:12;5.60;99.90
64869;DHT22;51349;52.424;10.840;2023-11-18T22:19:13;5.60;99.90
64869;DHT22;51349;52.424;10.840;2023-11-18T22:24:17;5.50;99.90
64869;DHT22;51349;52.424;10.840;2023-11-18T22:29:18;5.50;99.90
64869;DHT22;51349;52.424;10.840;2023-11-18T22:34:21;5.40;99.90
64869;DHT22;51349;52.424;10.840;2023-11-18T22:39:21;5.40;99.90
64869;DHT22;51349;52.424;10.840;2023-11-18T22:44:24;5.40;99.90
64869;DHT22;51349;52.424;10.840;2023-11-18T22:49:29;5.40;99.90
64869;DHT22;51349;52.424;10.840;2023-11-18T22:54:30;5.40;99.90
64869;DHT22;51349;52.424;10.840;2023-11-18T22:59:31;5.40;99.90
64869;DHT22;51349;52.424;10.840;2023-11-18T23:04:33;5.40;99.90
64869;DHT22;51349;52.424;10.840;2023-11-18T23:09:34;5.40;99.90
64869;DHT22;51349;52.424;10.840;2023-11-18T23:14:35;5.40;99.90
64869;DHT22;51349;52.424;10.840;2023-11-18T23:19:37;5.40;99.90
64869;DHT22;51349;52.424;10.840;2023-11-18T23:24:38;5.40;99.90
64869;DHT22;51349;52.424;10.840;2023-11-18T23:29:39;5.40;99.90
64869;DHT22;51349;52.424;10.840;2023-11-18T23:34:39;5.40;99.90
64869;DHT22;51349;52.424;10.840;2023-11-18T23:39:43;5.30;99.90
64869;DHT22;51349;52.424;10.840;2023-11-18T23:44:45;5.30;99.90
64869;DHT22;51349;52.424;10.840;2023-11-18T23:49:46;5.30;99.90
64869;DHT22;51349;52.424;10.840;2023-11-18T23:54:48;5.40;99.90
64869;DHT22;51349;52.424;10.840;2023-11-18T23:59:50;5.40;99.90
